createdAt,value
2019-05-26T00:00:35.377Z,81.10
2019-05-26T00:03:03.767Z,80.90
2019-05-26T00:05:32.096Z,81.10
2019-05-26T00:07:59.675Z,81.00
2019-05-26T00:10:27.285Z,81.20
2019-05-26T00:12:54.862Z,82.30
2019-05-26T00:15:22.440Z,82.00
2019-05-26T00:17:50.038Z,81.40
2019-05-26T00:20:18.377Z,82.00
2019-05-26T00:22:46.005Z,81.50
2019-05-26T00:25:13.582Z,81.60
2019-05-26T00:27:41.175Z,81.60
2019-05-26T00:30:08.794Z,81.70
2019-05-26T00:32:36.370Z,81.80
2019-05-26T00:35:04.069Z,81.90
2019-05-26T00:37:47.657Z,82.20
2019-05-26T00:39:59.896Z,82.50
2019-05-26T00:42:27.470Z,82.50
2019-05-26T00:44:55.064Z,82.70
2019-05-26T00:47:23.405Z,83.50
2019-05-26T00:49:51.029Z,83.50
2019-05-26T00:52:18.598Z,82.80
2019-05-26T00:54:46.184Z,82.20
2019-05-26T00:57:13.771Z,82.20
2019-05-26T00:59:41.346Z,82.20
2019-05-26T01:02:09.734Z,82.50
2019-05-26T01:04:38.070Z,82.80
2019-05-26T01:07:05.693Z,82.70
2019-05-26T01:09:33.257Z,82.80
2019-05-26T01:12:00.836Z,83.50
2019-05-26T01:14:28.435Z,83.10
2019-05-26T01:16:56.318Z,83.20
2019-05-26T01:19:24.379Z,83.80
2019-05-26T01:21:51.949Z,83.70
2019-05-26T01:24:19.573Z,84.00
2019-05-26T01:26:47.144Z,84.30
2019-05-26T01:29:14.720Z,84.40
2019-05-26T01:31:42.669Z,84.40
2019-05-26T01:34:10.234Z,84.90
2019-05-26T01:36:37.809Z,84.20
2019-05-26T01:39:05.418Z,84.10
2019-05-26T01:41:32.991Z,84.10
2019-05-26T01:44:00.567Z,84.90
2019-05-26T01:46:28.216Z,84.40
2019-05-26T01:48:55.790Z,84.50
2019-05-26T01:51:23.366Z,84.60
2019-05-26T01:53:50.967Z,85.00
2019-05-26T01:56:18.537Z,85.10
2019-05-26T01:58:46.156Z,85.40
2019-05-26T02:01:13.729Z,85.50
2019-05-26T02:03:41.306Z,85.70
2019-05-26T02:06:09.693Z,85.30
2019-05-26T02:08:39.723Z,85.10
2019-05-26T02:11:05.616Z,85.10
2019-05-26T02:13:33.216Z,85.20
2019-05-26T02:16:00.790Z,85.30
2019-05-26T02:18:28.361Z,85.40
2019-05-26T02:20:55.965Z,85.40
2019-05-26T02:23:23.541Z,85.30
2019-05-26T02:25:51.902Z,85.40
2019-05-26T02:28:19.504Z,85.30
2019-05-26T02:30:47.074Z,85.30
2019-05-26T02:33:14.694Z,85.40
2019-05-26T02:35:43.057Z,86.30
2019-05-26T02:38:10.617Z,85.50
2019-05-26T02:40:38.239Z,85.50
2019-05-26T02:43:05.808Z,85.60
2019-05-26T02:45:33.379Z,84.90
2019-05-26T02:48:00.984Z,84.20
2019-05-26T02:50:28.561Z,84.20
2019-05-26T02:52:56.905Z,84.50
2019-05-26T02:55:24.501Z,84.30
2019-05-26T02:57:52.845Z,84.70
2019-05-26T03:00:38.818Z,84.60
2019-05-26T03:03:06.391Z,84.90
2019-05-26T03:05:33.963Z,85.20
2019-05-26T03:08:01.600Z,85.50
2019-05-26T03:10:29.151Z,85.70
2019-05-26T03:12:56.723Z,85.80
2019-05-26T03:15:24.335Z,85.90
2019-05-26T03:17:52.674Z,86.20
2019-05-26T03:20:20.242Z,86.10
2019-05-26T03:22:50.688Z,86.20
2019-05-26T03:25:19.614Z,86.30
2019-05-26T03:27:47.944Z,86.10
2019-05-26T03:30:15.597Z,86.10
2019-05-26T03:32:43.886Z,85.90
2019-05-26T03:35:11.514Z,85.90
2019-05-26T03:37:39.080Z,85.80
2019-05-26T03:40:06.645Z,85.80
2019-05-26T03:42:34.259Z,85.10
2019-05-26T03:45:02.601Z,85.20
2019-05-26T03:47:30.177Z,85.90
2019-05-26T03:49:57.786Z,84.60
2019-05-26T03:52:25.357Z,84.50
2019-05-26T03:54:52.924Z,84.70
2019-05-26T03:57:20.516Z,85.00
2019-05-26T03:59:48.086Z,85.00
2019-05-26T04:02:15.708Z,85.10
2019-05-26T04:04:43.277Z,85.50
2019-05-26T04:07:10.853Z,86.50
2019-05-26T04:09:38.447Z,85.80
2019-05-26T04:12:06.019Z,85.80
2019-05-26T04:14:33.622Z,86.00
2019-05-26T04:17:01.189Z,86.40
2019-05-26T04:19:28.803Z,86.60
2019-05-26T04:21:56.372Z,86.80
2019-05-26T04:24:24.705Z,87.40
2019-05-26T04:26:52.299Z,87.40
2019-05-26T04:29:19.863Z,87.60
2019-05-26T04:31:47.456Z,87.60
2019-05-26T04:34:15.032Z,87.80
2019-05-26T04:36:42.688Z,87.90
2019-05-26T04:39:10.261Z,88.00
2019-05-26T04:41:37.831Z,88.20
2019-05-26T04:44:05.435Z,88.90
2019-05-26T04:46:33.767Z,88.40
2019-05-26T04:49:01.343Z,88.10
2019-05-26T04:51:28.945Z,88.20
2019-05-26T04:53:57.580Z,88.40
2019-05-26T04:56:25.165Z,88.30
2019-05-26T04:58:53.034Z,88.40
2019-05-26T05:01:20.621Z,88.50
2019-05-26T05:03:48.197Z,89.20
2019-05-26T05:06:15.797Z,88.70
2019-05-26T05:08:43.372Z,87.60
2019-05-26T05:11:11.037Z,88.00
2019-05-26T05:13:38.604Z,87.50
2019-05-26T05:16:06.181Z,87.70
2019-05-26T05:18:34.561Z,88.70
2019-05-26T05:21:02.905Z,88.10
2019-05-26T05:23:31.082Z,88.00
2019-05-26T05:25:58.694Z,87.90
2019-05-26T05:28:27.034Z,88.30
2019-05-26T05:30:54.607Z,88.30
2019-05-26T05:33:22.200Z,88.60
2019-05-26T05:35:49.772Z,88.80
2019-05-26T05:38:17.896Z,88.90
2019-05-26T05:40:58.250Z,88.90
2019-05-26T05:43:13.047Z,88.90
2019-05-26T05:45:40.660Z,88.90
2019-05-26T05:48:08.228Z,89.00
2019-05-26T05:50:39.136Z,88.90
2019-05-26T05:53:04.252Z,89.00
2019-05-26T05:55:31.853Z,89.00
2019-05-26T05:57:59.482Z,89.00
2019-05-26T06:00:27.787Z,90.20
2019-05-26T06:02:55.471Z,90.20
2019-05-26T06:05:23.822Z,90.20
2019-05-26T06:07:51.412Z,89.80
2019-05-26T06:10:19.045Z,88.80
2019-05-26T06:12:46.628Z,89.20
2019-05-26T06:15:16.008Z,88.10
2019-05-26T06:17:41.887Z,88.60
2019-05-26T06:20:09.443Z,87.70
2019-05-26T06:22:37.027Z,87.70
2019-05-26T06:25:04.627Z,87.80
2019-05-26T06:27:32.233Z,88.00
2019-05-26T06:30:00.648Z,88.00
2019-05-26T06:32:28.222Z,88.60
2019-05-26T06:34:55.807Z,88.80
2019-05-26T06:37:23.971Z,88.60
2019-05-26T06:39:51.571Z,88.50
2019-05-26T06:42:19.152Z,88.70
2019-05-26T06:44:53.656Z,89.50
2019-05-26T06:47:14.373Z,88.50
2019-05-26T06:49:41.952Z,88.30
2019-05-26T06:52:10.048Z,88.20
2019-05-26T06:54:37.627Z,87.90
2019-05-26T06:57:05.206Z,87.70
2019-05-26T06:59:33.604Z,87.10
2019-05-26T07:02:01.184Z,87.10
2019-05-26T07:04:28.762Z,86.90
2019-05-26T07:06:56.367Z,86.70
2019-05-26T07:09:24.715Z,86.10
2019-05-26T07:11:59.573Z,86.00
2019-05-26T07:14:20.537Z,85.90
2019-05-26T07:16:48.113Z,85.80
2019-05-26T07:19:16.244Z,85.60
2019-05-26T07:21:43.830Z,85.00
2019-05-26T07:24:11.411Z,84.30
2019-05-26T07:26:39.019Z,83.90
2019-05-26T07:29:06.623Z,83.20
2019-05-26T07:31:34.242Z,82.80
2019-05-26T07:34:02.580Z,82.10
2019-05-26T07:36:30.178Z,82.10
2019-05-26T07:38:59.137Z,80.10
2019-05-26T07:41:26.725Z,80.00
2019-05-26T07:43:55.077Z,79.00
2019-05-26T07:46:22.700Z,78.80
2019-05-26T07:48:50.274Z,78.10
2019-05-26T07:51:17.845Z,77.60
2019-05-26T07:53:45.505Z,77.10
2019-05-26T07:56:13.087Z,76.20
2019-05-26T07:58:40.656Z,75.70
2019-05-26T08:01:08.276Z,74.90
2019-05-26T08:06:12.603Z,73.90
2019-05-26T08:08:40.181Z,73.40
2019-05-26T08:11:07.760Z,71.50
2019-05-26T08:13:35.382Z,71.00
2019-05-26T08:16:02.962Z,70.80
2019-05-26T08:18:30.546Z,70.50
2019-05-26T08:20:58.731Z,70.70
2019-05-26T08:23:26.299Z,70.10
2019-05-26T08:25:53.969Z,70.20
2019-05-26T08:28:21.514Z,70.30
2019-05-26T08:30:49.089Z,69.60
2019-05-26T08:33:16.663Z,70.10
2019-05-26T08:35:45.052Z,69.80
2019-05-26T08:38:12.629Z,69.70
2019-05-26T08:40:41.158Z,70.10
2019-05-26T08:43:08.782Z,69.80
2019-05-26T08:45:36.364Z,70.00
2019-05-26T08:48:03.940Z,69.70
2019-05-26T08:50:34.311Z,69.30
2019-05-26T08:52:59.145Z,69.10
2019-05-26T08:55:26.748Z,69.20
2019-05-26T08:57:54.435Z,69.00
2019-05-26T09:00:22.781Z,68.40
2019-05-26T09:02:50.397Z,68.30
2019-05-26T09:05:18.018Z,68.30
2019-05-26T09:07:45.588Z,68.10
2019-05-26T09:10:13.929Z,66.10
2019-05-26T09:12:41.797Z,66.00
2019-05-26T09:15:09.372Z,65.40
2019-05-26T09:17:36.946Z,65.30
2019-05-26T09:20:10.900Z,65.20
2019-05-26T09:22:35.849Z,65.70
2019-05-26T09:25:03.440Z,65.60
2019-05-26T09:27:31.830Z,64.60
2019-05-26T09:29:59.406Z,64.50
2019-05-26T09:32:26.971Z,64.40
2019-05-26T09:34:55.091Z,64.90
2019-05-26T09:37:22.659Z,64.70
2019-05-26T09:39:50.242Z,64.50
2019-05-26T09:42:18.625Z,64.00
2019-05-26T09:44:46.962Z,64.00
2019-05-26T09:47:14.549Z,64.00
2019-05-26T09:49:42.188Z,64.20
2019-05-26T09:52:09.758Z,64.10
2019-05-26T09:54:37.334Z,64.10
2019-05-26T09:57:06.614Z,62.50
2019-05-26T09:59:34.769Z,62.50
2019-05-26T10:02:02.347Z,62.10
2019-05-26T10:04:29.965Z,61.60
2019-05-26T10:06:57.541Z,61.10
2019-05-26T10:09:25.112Z,61.00
2019-05-26T10:11:52.834Z,60.90
2019-05-26T10:14:20.384Z,61.30
2019-05-26T10:16:49.029Z,60.30
2019-05-26T10:19:16.628Z,60.30
2019-05-26T10:21:44.766Z,60.30
2019-05-26T10:24:13.373Z,60.20
2019-05-26T10:26:40.944Z,60.00
2019-05-26T10:29:08.527Z,60.20
2019-05-26T10:31:36.943Z,60.00
2019-05-26T10:34:04.507Z,60.00
2019-05-26T10:36:32.382Z,59.20
2019-05-26T10:39:00.006Z,58.70
2019-05-26T10:41:28.338Z,58.90
2019-05-26T10:43:55.918Z,58.90
2019-05-26T10:46:23.514Z,58.80
2019-05-26T10:48:51.086Z,58.00
2019-05-26T10:51:18.708Z,58.10
2019-05-26T10:53:46.288Z,58.50
2019-05-26T10:56:14.632Z,58.60
2019-05-26T10:58:42.261Z,58.60
2019-05-26T11:01:09.835Z,59.00
2019-05-26T11:03:37.414Z,59.00
2019-05-26T11:06:05.029Z,59.10
2019-05-26T11:08:32.604Z,59.30
2019-05-26T11:11:00.187Z,59.00
2019-05-26T11:13:27.814Z,59.00
2019-05-26T11:15:55.387Z,58.40
2019-05-26T11:18:22.962Z,57.90
2019-05-26T11:20:50.581Z,57.00
2019-05-26T11:23:18.957Z,56.50
2019-05-26T11:25:46.498Z,56.50
2019-05-26T11:28:14.130Z,56.70
2019-05-26T11:30:41.711Z,56.90
2019-05-26T11:33:09.282Z,56.10
2019-05-26T11:35:36.881Z,56.10
2019-05-26T11:38:04.454Z,56.10
2019-05-26T11:40:32.570Z,55.50
2019-05-26T11:43:00.166Z,55.40
2019-05-26T11:45:28.811Z,54.20
2019-05-26T11:47:56.807Z,54.20
2019-05-26T11:50:24.407Z,52.80
2019-05-26T11:52:51.977Z,53.10
2019-05-26T11:55:19.614Z,53.40
2019-05-26T11:57:48.550Z,52.30
2019-05-26T12:00:16.390Z,52.20
2019-05-26T12:02:43.847Z,52.10
2019-05-26T12:05:11.400Z,51.70
2019-05-26T12:07:39.800Z,51.00
2019-05-26T12:10:07.404Z,51.00
2019-05-26T12:12:35.016Z,50.80
2019-05-26T12:15:02.723Z,50.40
2019-05-26T12:17:30.275Z,49.80
2019-05-26T12:19:57.889Z,49.00
2019-05-26T12:22:25.532Z,48.60
2019-05-26T12:24:53.173Z,49.00
2019-05-26T12:27:20.730Z,48.50
2019-05-26T12:29:49.150Z,47.70
2019-05-26T12:32:17.526Z,48.70
2019-05-26T12:34:45.081Z,48.60
2019-05-26T12:37:13.524Z,45.80
2019-05-26T12:39:41.087Z,45.70
2019-05-26T12:42:08.682Z,45.70
2019-05-26T12:44:48.666Z,46.10
2019-05-26T12:47:03.921Z,46.70
2019-05-26T12:49:31.836Z,45.40
2019-05-26T12:51:59.455Z,46.10
2019-05-26T12:54:27.795Z,47.10
2019-05-26T12:56:55.371Z,47.10
2019-05-26T12:59:23.018Z,47.10
2019-05-26T13:01:50.593Z,47.10
2019-05-26T13:04:18.169Z,47.50
2019-05-26T13:06:46.555Z,46.40
2019-05-26T13:09:14.897Z,46.60
2019-05-26T13:11:42.469Z,46.60
2019-05-26T13:14:10.649Z,46.70
2019-05-26T13:16:38.231Z,46.60
2019-05-26T13:19:06.576Z,45.00
2019-05-26T13:21:34.198Z,45.00
2019-05-26T13:24:01.769Z,44.90
2019-05-26T13:26:29.335Z,43.50
2019-05-26T13:28:56.981Z,44.10
2019-05-26T13:31:24.558Z,45.40
2019-05-26T13:33:52.129Z,46.00
2019-05-26T13:36:20.410Z,46.10
2019-05-26T13:38:48.016Z,46.30
2019-05-26T13:41:15.556Z,46.10
2019-05-26T13:43:43.178Z,45.20
2019-05-26T13:46:10.757Z,45.10
2019-05-26T13:48:38.334Z,44.70
2019-05-26T13:51:05.962Z,44.50
2019-05-26T13:53:33.537Z,43.70
2019-05-26T13:56:01.179Z,43.90
2019-05-26T13:58:28.734Z,43.30
2019-05-26T14:00:56.317Z,43.80
2019-05-26T14:03:24.418Z,44.00
2019-05-26T14:05:51.486Z,44.00
2019-05-26T14:08:19.062Z,44.20
2019-05-26T14:10:46.693Z,44.60
2019-05-26T14:13:14.847Z,44.30
2019-05-26T14:15:42.427Z,44.20
2019-05-26T14:18:10.055Z,43.50
2019-05-26T14:20:37.631Z,43.60
2019-05-26T14:23:05.226Z,43.60
2019-05-26T14:25:32.830Z,43.30
2019-05-26T14:28:00.402Z,43.30
2019-05-26T14:30:27.980Z,43.50
2019-05-26T14:32:55.602Z,43.60
2019-05-26T14:35:24.961Z,44.00
2019-05-26T14:37:52.532Z,43.90
2019-05-26T14:40:20.153Z,44.00
2019-05-26T14:42:47.727Z,44.00
2019-05-26T14:45:15.298Z,44.50
2019-05-26T14:47:43.486Z,45.30
2019-05-26T14:50:11.063Z,45.90
2019-05-26T14:52:38.628Z,46.40
2019-05-26T14:55:06.249Z,46.80
2019-05-26T14:57:33.822Z,46.80
2019-05-26T15:00:01.395Z,46.70
2019-05-26T15:02:29.016Z,47.00
2019-05-26T15:04:56.658Z,47.20
2019-05-26T15:07:24.193Z,47.00
2019-05-26T15:09:51.813Z,46.50
2019-05-26T15:12:19.389Z,45.30
2019-05-26T15:14:46.971Z,43.60
2019-05-26T15:17:14.936Z,42.00
2019-05-26T15:19:42.503Z,41.90
2019-05-26T15:22:10.079Z,42.70
2019-05-26T15:24:38.460Z,42.30
2019-05-26T15:27:06.032Z,42.30
2019-05-26T15:29:34.420Z,42.30
2019-05-26T15:32:03.203Z,42.20
2019-05-26T15:34:30.329Z,42.20
2019-05-26T15:36:57.951Z,42.00
2019-05-26T15:39:25.526Z,42.30
2019-05-26T15:41:53.103Z,42.30
2019-05-26T15:44:20.724Z,42.40
2019-05-26T15:46:48.293Z,42.60
2019-05-26T15:49:15.872Z,42.90
2019-05-26T15:51:43.488Z,43.30
2019-05-26T15:54:11.831Z,43.50
2019-05-26T15:56:39.404Z,43.40
2019-05-26T15:59:07.024Z,44.10
2019-05-26T16:01:34.602Z,44.30
2019-05-26T16:04:02.176Z,44.50
2019-05-26T16:06:30.149Z,45.40
2019-05-26T16:08:57.732Z,44.90
2019-05-26T16:11:25.300Z,45.00
2019-05-26T16:13:54.270Z,45.50
2019-05-26T16:16:21.819Z,45.50
2019-05-26T16:18:49.398Z,45.80
2019-05-26T16:21:27.553Z,46.20
2019-05-26T16:23:44.594Z,46.60
2019-05-26T16:26:12.460Z,47.20
2019-05-26T16:28:40.080Z,47.20
2019-05-26T16:31:12.061Z,46.90
2019-05-26T16:33:36.373Z,46.90
2019-05-26T16:36:03.976Z,47.00
2019-05-26T16:38:32.366Z,47.40
2019-05-26T16:41:00.706Z,47.70
2019-05-26T16:43:28.284Z,47.70
2019-05-26T16:45:56.693Z,48.00
2019-05-26T16:48:23.475Z,48.40
2019-05-26T16:50:51.053Z,48.70
2019-05-26T16:53:18.684Z,49.10
2019-05-26T16:55:46.263Z,49.40
2019-05-26T16:58:13.830Z,50.00
2019-05-26T17:00:41.458Z,49.80
2019-05-26T17:03:09.044Z,50.20
2019-05-26T17:05:36.643Z,50.60
2019-05-26T17:08:04.264Z,51.00
2019-05-26T17:10:31.836Z,51.40
2019-05-26T17:12:59.412Z,51.80
2019-05-26T17:15:27.027Z,52.20
2019-05-26T17:17:54.605Z,52.60
2019-05-26T17:20:22.179Z,53.00
2019-05-26T17:22:49.801Z,52.90
2019-05-26T17:25:18.137Z,53.20
2019-05-26T17:27:45.713Z,53.10
2019-05-26T17:30:13.590Z,53.20
2019-05-26T17:32:41.163Z,53.30
2019-05-26T17:35:09.496Z,53.50
2019-05-26T17:37:37.465Z,53.50
2019-05-26T17:40:05.812Z,53.30
2019-05-26T17:42:32.612Z,53.20
2019-05-26T17:45:00.236Z,54.10
2019-05-26T17:47:30.766Z,53.70
2019-05-26T17:49:55.898Z,54.10
2019-05-26T17:52:23.976Z,53.90
2019-05-26T17:54:51.546Z,54.00
2019-05-26T17:57:19.121Z,54.20
2019-05-26T17:59:47.887Z,54.50
2019-05-26T18:02:15.982Z,54.80
2019-05-26T18:04:43.513Z,55.00
2019-05-26T18:07:11.703Z,55.30
2019-05-26T18:09:44.276Z,55.50
2019-05-26T18:12:06.878Z,56.10
2019-05-26T18:14:34.496Z,55.50
2019-05-26T18:17:02.068Z,55.20
2019-05-26T18:19:30.450Z,55.20
2019-05-26T18:21:58.027Z,55.20
2019-05-26T18:24:25.607Z,55.40
2019-05-26T18:26:53.173Z,55.70
2019-05-26T18:29:20.831Z,55.40
2019-05-26T18:31:48.410Z,55.50
2019-05-26T18:34:16.002Z,55.60
2019-05-26T18:36:43.597Z,55.70
2019-05-26T18:39:11.174Z,56.10
2019-05-26T18:41:38.754Z,56.00
2019-05-26T18:44:06.373Z,56.10
2019-05-26T18:46:34.719Z,56.60
2019-05-26T18:49:02.295Z,56.60
2019-05-26T18:51:30.559Z,56.70
2019-05-26T18:53:58.136Z,57.00
2019-05-26T18:56:25.706Z,56.80
2019-05-26T18:58:54.656Z,57.20
2019-05-26T19:01:22.229Z,57.20
2019-05-26T19:03:49.807Z,57.30
2019-05-26T19:06:17.436Z,57.60
2019-05-26T19:08:45.513Z,57.80
2019-05-26T19:11:13.089Z,58.00
2019-05-26T19:13:40.746Z,58.80
2019-05-26T19:16:08.916Z,58.40
2019-05-26T19:18:36.492Z,58.60
2019-05-26T19:21:04.104Z,58.90
2019-05-26T19:23:31.681Z,58.70
2019-05-26T19:25:59.250Z,58.80
2019-05-26T19:28:26.852Z,59.00
2019-05-26T19:30:54.429Z,59.20
2019-05-26T19:33:22.818Z,59.50
2019-05-26T19:35:51.163Z,59.70
2019-05-26T19:38:18.733Z,59.70
2019-05-26T19:40:46.362Z,59.90
2019-05-26T19:43:13.936Z,60.10
2019-05-26T19:45:41.518Z,60.30
2019-05-26T19:48:09.189Z,60.50
2019-05-26T19:50:36.768Z,60.60
2019-05-26T19:53:05.113Z,60.90
2019-05-26T19:55:33.078Z,60.80
2019-05-26T19:58:00.648Z,60.90
2019-05-26T20:00:28.986Z,61.60
2019-05-26T20:02:56.612Z,61.60
2019-05-26T20:05:24.957Z,61.40
2019-05-26T20:07:52.529Z,61.30
2019-05-26T20:10:20.484Z,61.70
2019-05-26T20:12:48.062Z,62.30
2019-05-26T20:15:15.640Z,61.90
2019-05-26T20:17:44.308Z,62.30
2019-05-26T20:20:11.880Z,62.30
2019-05-26T20:22:39.455Z,62.70
2019-05-26T20:25:07.827Z,63.50
2019-05-26T20:27:35.917Z,63.40
2019-05-26T20:30:07.218Z,64.10
2019-05-26T20:32:34.795Z,64.10
2019-05-26T20:35:02.420Z,64.40
2019-05-26T20:37:30.007Z,64.70
2019-05-26T20:39:57.579Z,65.00
2019-05-26T20:42:26.451Z,65.40
2019-05-26T20:44:54.025Z,65.80
2019-05-26T20:47:21.597Z,66.20
2019-05-26T20:49:49.199Z,66.60
2019-05-26T20:52:16.779Z,67.50
2019-05-26T20:54:44.352Z,67.30
2019-05-26T20:57:11.999Z,66.80
2019-05-26T20:59:39.596Z,67.00
2019-05-26T21:02:07.169Z,67.20
2019-05-26T21:04:34.774Z,67.50
2019-05-26T21:07:02.345Z,67.90
2019-05-26T21:09:29.978Z,68.40
2019-05-26T21:11:58.315Z,68.30
2019-05-26T21:14:25.885Z,68.20
2019-05-26T21:16:54.658Z,68.50
2019-05-26T21:19:22.229Z,68.80
2019-05-26T21:21:49.800Z,69.10
2019-05-26T21:24:17.478Z,69.40
2019-05-26T21:26:45.047Z,69.60
2019-05-26T21:29:13.505Z,70.00
2019-05-26T21:31:44.112Z,70.00
2019-05-26T21:34:11.688Z,70.20
2019-05-26T21:36:39.272Z,70.30
2019-05-26T21:39:06.925Z,70.70
2019-05-26T21:41:34.499Z,70.30
2019-05-26T21:44:02.071Z,70.40
2019-05-26T21:46:30.452Z,69.60
2019-05-26T21:48:58.826Z,69.80
2019-05-26T21:51:26.428Z,69.70
2019-05-26T21:53:54.003Z,69.80
2019-05-26T21:56:21.574Z,70.10
2019-05-26T21:58:49.241Z,70.30
2019-05-26T22:01:16.812Z,70.80
2019-05-26T22:03:44.403Z,70.30
2019-05-26T22:06:12.765Z,71.70
2019-05-26T22:08:40.338Z,71.00
2019-05-26T22:11:07.960Z,70.50
2019-05-26T22:13:35.527Z,70.80
2019-05-26T22:16:03.185Z,70.50
2019-05-26T22:18:30.811Z,70.70
2019-05-26T22:20:59.150Z,71.60
2019-05-26T22:23:26.724Z,71.50
2019-05-26T22:25:54.391Z,71.90
2019-05-26T22:28:21.963Z,72.30
2019-05-26T22:30:50.301Z,73.30
2019-05-26T22:33:17.950Z,73.70
2019-05-26T22:35:45.525Z,73.50
2019-05-26T22:38:13.099Z,73.80
2019-05-26T22:40:40.694Z,74.10
2019-05-26T22:43:09.040Z,74.60
2019-05-26T22:45:36.656Z,74.60
2019-05-26T22:48:04.230Z,74.90
2019-05-26T22:50:31.795Z,75.20
2019-05-26T22:52:59.693Z,75.30
2019-05-26T22:55:27.264Z,75.50
2019-05-26T22:57:54.836Z,75.80
2019-05-26T23:00:23.207Z,76.80
2019-05-26T23:02:50.788Z,76.60
2019-05-26T23:05:19.125Z,75.90
2019-05-26T23:07:47.274Z,75.90
2019-05-26T23:10:14.852Z,76.10
2019-05-26T23:12:42.431Z,76.30
2019-05-26T23:15:10.040Z,76.50
2019-05-26T23:17:37.613Z,76.80
2019-05-26T23:20:05.200Z,77.40
2019-05-26T23:22:32.801Z,76.90
2019-05-26T23:25:00.381Z,76.80
2019-05-26T23:27:28.723Z,77.10
2019-05-26T23:29:56.345Z,77.10
2019-05-26T23:32:24.438Z,77.10
2019-05-26T23:34:52.015Z,77.20
2019-05-26T23:37:19.623Z,77.50
2019-05-26T23:39:47.197Z,77.70
2019-05-26T23:42:14.772Z,77.90
2019-05-26T23:44:42.370Z,78.10
2019-05-26T23:47:09.946Z,78.20
2019-05-26T23:49:37.519Z,78.40
2019-05-26T23:52:05.908Z,78.80
2019-05-26T23:54:34.251Z,79.00
2019-05-26T23:57:01.826Z,78.90
2019-05-26T23:59:29.446Z,79.10
